Airfield :
LOGIN :

Register | Disclaimer

   EN    FR    IT 

 










Legend :    VFR   Marginal VFR   IFR   Intensive IFR   Very Intensive IFR
Visi :
Ceiling :
>= 8 km
>= 3000ft
5 to 8 km
1000 to 3000 ft
1500m to 5 km
500 to 1000 ft
800 to 1500m
200 to 500 ft
< 800m
< 200 ft
Symbols :   Thunderstorms  Fog  Heavy snow  Heavy precipitations  Wind > 20 kt
SIGMETs :     Misc.  Thunderstorms  Icing  Turbulence  Mountain Waves  Volcanic Ashes







- Airport Elevation : 83 ft
- IATA code : LHR
- Download approach charts


EGLL - London Heathrow

CURRENT METAR :
  • 161450Z AUTO 26019KT 9999 FEW049 07/M01 Q0996 NOSIG

EXPIRED METARs :
  • 161420Z AUTO 26018KT 9999 FEW048 07/M01 Q0996 TEMPO SHRA
  • 161350Z AUTO 27021KT 9999 SCT045 08/M02 Q0996
  • 161320Z AUTO 26019KT 9999 FEW048 08/M01 Q0996 NOSIG
  • 161250Z AUTO 26022KT 9999 SCT041 07/M00 Q0996 NOSIG
  • 161220Z AUTO 27017KT 9999 FEW042 08/00 Q0997

TAF TAF EGLL
Valid from the 16 at 12:00 until the 17 at 18:00 UTC


161055Z 1612/1718 25014KT 9999 SCT025
TEMPO 1612/1715 27018G28KT
PROB30
TEMPO 1612/1617 6000 SHRA SHGS
PROB30
TEMPO 1617/1624 4000 SHRASN BKN014
No reported NOTAMs for that airfield.
2 SIGMETs reported for the London FIR (EGTT) :
 
Severe turbulence
EGTT SIGMET 04 VALID 161500/161900 EGRR
EGTT LONDON FIR SEV TURB FCST WI N5040 E00128 - N5000 W00015 - N4850 W00800 - N5100 W00800 - N5220 W00530 - N5500 W00530 - N5500 W00216 - N5225 W00329 - N5038 W00249 - N5040 E00128 SFC/FL060 STNR NC=
Severe turbulence
EGTT SIGMET 03 VALID 161100/161500 EGRR
EGTT LONDON FIR SEV TURB FCST WI N5000 W00015 - N4850 W00800 - N5100 W00800 - N5220 W00530 - N5500 W00530 - N5500 W00240 - N5041 W00323 - N5100 E00128 - N5040 E00128 - N5000 W00015 SFC/FL060 STNR NC=



MET'MAP, your aeronautical weather chart ! - Copyright ORBIFLY December 2007 - Disclaimer

ORBIFLY MET'MAP TEAM :

Programming & Development : Alexandra Zaïnal
Concept & Development : Baudouin d'Aumeries
Co-Development & Prog : Marc-Olivier Méhu
Technical & hardware support : Manuel Goepfert

Contact : metmap@orbifly.com




SOURCES & CREDITS :

   NOAA